Terminal Aerodrome Forecast
Issued by NWS North Platte, NE

Home | Current Version | Previous Version | Graphics & Text | Print | Product List | Glossary On
Versions: 1 2 3 4 5 6 7 8 9 10 11 12 13 14 15
000
FTUS43 KLBF 242300
TAFVTN
TAF
KVTN 242320Z 2500/2524 VRB06KT P6SM SCT120
     FM251200 35008KT P6SM BKN120 PROB30 2512/2516 -SHRA OVC060=

USA.gov is the U.S. government's official web portal to all federal, state and local government web resources and services.